8ND0 weather

Public forecast

Using degrees Fahrenheit for public forecast. Weather courtesy of forecast.io.

Closest aviation weather report (METAR) to Amble-Tiger North Farms Airport

Closest report is Rolla Municipal Airport, 23.9 nm (44.2 km) W. Retrieved 2020/08/15 12:35 UTC (5 minutes ago):

K06D 151235Z AUTO 25007KT 10SM FEW120 14/14 A2996 RMK AO2

Closest aviation forecast (TAF) to Amble-Tiger North Farms Airport

Closest forecast is Devils Lake Regional Airport, 47.5 nm (87.9 km) S. Retrieved 2020/08/15 12:24 UTC (16 minutes ago):

TAF KDVL 151121Z 1512/1612 24007KT P6SM SCT100 FM151800 30014G21KT P6SM SCT080 FM160200 VRB04KT P6SM FEW080